Share

Holstein, IA

4:55 AM CDT on April 25, 2014 (GMT -0500)
Holstein Ag Services, LLC (KIAHOLST2) Elev 1381 ft | 42.50 °N, 95.54 °W | Change Station

Current weather conditions updated 40 seconds ago

Fog
Fog
47.1 °F
Feels Like 43 °F
N
9.0
Wind Variable Wind from SSW
Gusts 12.0 mph
Sunrise 6:25 AM
Sunset 8:15 PM
Moon Waning Crescent

Today is forecast to be Much Cooler than yesterday.

Pressure 29.80 in
Visibility 10.0 miles
Clouds
Windchill 43 °F
Dew Point 40 °F
Humidity 78%
Rainfall 0.00 in
Snow Depth Not available.
UV Not available.
Pollen 7.70 out of 12
Air Quality Not available.
Flu Activity Sporadic
METAR KLRJ 250935Z AUTO 18004KT 10SM 02/02 A2980 RMK AO2 PWINO

More Conditions Fewer Conditions

Pressure 29.80 in
Visibility 10.0 miles
Clouds
Windchill 43 °F
Dew Point 40 °F
Humidity 78%
Rainfall 0.00 in
Snow Depth Not available.
UV Not available.
Pollen 7.70 out of 12
Air Quality Not available.
Flu Activity Sporadic
METAR KLRJ 250935Z AUTO 18004KT 10SM 02/02 A2980 RMK AO2 PWINO

More Conditions Fewer Conditions

10-Day Weather Forecast

Almanac

Astronomy

Apr. 25, 2014 Rise Set
Actual Time 6:25 AM CDT 8:15 PM CDT
Civil Twilight 5:55 AM CDT 8:45 PM CDT
Nautical Twilight 5:18 AM CDT 9:22 PM CDT
Astronomical Twilight 4:39 AM CDT 10:02 PM CDT
Moon 4:19 AM CDT 4:34 PM CDT
Length of Visible Light 14h 50m
Length of Day
13h 49m
Tomorrow will be 2m 35s longer.
Waning Crescent, 17% of the Moon is Illuminated
Today
Waning Crescent
Apr 29
New
May 6
First Quarter
May 14
Full
May 21
Last Quarter

Today's Extremes

State Highs State Lows

Community

  • Storm Clouds & Sunset
    Storm Clouds & Sunset
  • Deer in evening light
    Deer in evening light
  • Critter
    Critter
  • Jone Runs Falls
    Jone Runs Falls
  • Easter in Shenandoah National Park
    Easter in Shenandoah National Park

WunderPhotos

Upload Photos

1,704,876 photos uploaded!

WunderBlogs® & News

Nearby

Snow Depth

Station Depth Elevation
No new snow has been reported.

Coastal Water Temperatures

Place Temperature
No Stations Reporting

Earthquake Activity

City Distance Mag. Time & Date
No recent earthquake activity has been reported nearby.
Minimum magnitude displayed is 2.5.

Nearby Weather Stations

Station Location Temp. Windchill Dew Point Humidity Wind Precip. Elev Updated Type
Holstein Ag Services, LLC, Holstein, IA 47.1 °F 43 °F 40 °F 78% SSW  at  9.0 mph 0.00 in / hr 1381 ft 4:55 AM CDT Rapid Fire
Oxendales Arthur, IA, Arthur, IA 40.5 °F 40 °F 39 °F 95% SSW  at  1.1 mph 0.00 in / hr 1496 ft 4:55 AM CDT Rapid Fire
The Danbury Review, Danbury, IA 37.1 °F 37 °F 35 °F 92% North  at  0.0 mph 0.00 in / hr 1162 ft 4:55 AM CDT Normal
Ricklefs Home, Storm Lake, IA 44.8 °F 45 °F 40 °F 84% WSW  at  1.6 mph 0.00 in / hr 1414 ft 4:55 AM CDT Rapid Fire

Show More Stations Show Fewer Stations

What do you think?

We're not finished. Please let us know what you like, what you don't like, and what you are still missing.